This is the latest recevied weather packets stored in our database for station/object IZ8QAD-12. If no packets are shown the sender has not sent any weather packets the latest 10 day(s).
| Time | Temp. | Humidity | Pressure | Rain* | Wind** | Luminosity | Snow |
|---|---|---|---|---|---|---|---|
| 1777473734 | 23.89° C | 20% | 966.9 hPa | - | - | - | - |
| 1777471034 | 27.22° C | 16% | 967.1 hPa | - | - | - | - |
| 1777468334 | 42.78° C | 5% | 967.2 hPa | - | - | - | - |
| 1777465634 | 52.78° C | 2% | 967.2 hPa | - | - | - | - |
| 1777462933 | 58.33° C | 1% | 967.4 hPa | - | - | - | - |
| 1777460233 | 58.33° C | 1% | 967.8 hPa | - | - | - | - |
| 1777454834 | 55.56° C | 4% | 968.5 hPa | - | - | - | - |
| 1777449433 | 42.22° C | 16% | 968.8 hPa | - | - | - | - |
| 1777446741 | 32.78° C | 25% | 968.8 hPa | - | - | - | - |
| 1777444033 | 20° C | 40% | 968.6 hPa | - | - | - | - |
| 1777441341 | 10.56° C | 54% | 968.9 hPa | - | - | - | - |
| 1777435933 | 5.56° C | 54% | 968.4 hPa | - | - | - | - |
| 1777433233 | 6.11° C | 52% | 968.2 hPa | - | - | - | - |
| 1777427832 | 6.67° C | 48% | 968.5 hPa | - | - | - | - |
| 1777425132 | 7.78° C | 47% | 968.3 hPa | - | - | - | - |
| 1777422432 | 8.89° C | 45% | 968.5 hPa | - | - | - | - |
| 1777419732 | 8.89° C | 41% | 968.6 hPa | - | - | - | - |
| 1777417032 | 8.89° C | 38% | 968.7 hPa | - | - | - | - |
| 1777414332 | 9.44° C | 36% | 968.8 hPa | - | - | - | - |
| 1777411632 | 10° C | 36% | 968.6 hPa | - | - | - | - |
| 1777408932 | 11.11° C | 35% | 968.5 hPa | - | - | - | - |
| 1777406232 | 12.78° C | 35% | 968.3 hPa | - | - | - | - |
| 1777403531 | 14.44° C | 34% | 968.2 hPa | - | - | - | - |
| 1777400832 | 15.56° C | 35% | 967.6 hPa | - | - | - | - |
| 1777398131 | 17.78° C | 33% | 967.5 hPa | - | - | - | - |
* Rain since midnight (hover to see other rain measurements)
** Current wind speed in m/s (hover to see current wind gust speed)